KYNG/YNG METAR and TAF weather

Enter ICAO airport designator
Station Type Date Time Source
KYNG METAR 2023/02/04 01:51 UTC NOAA

KYNG 040151Z 26003KT 10SM -SN BKN044 M13/M17 A3049 RMK AO2 SLP352 P0000 T11281172


Station Type Date Time Source
KYNG Decoded METAR 2023/02/04 01:51 UTC NOAA

YOUNGSTOWN-WARREN REG AIRPRT, OH, United States (KYNG) 41-15N 080-40W 360M
Feb 03, 2023 - 08:51 PM EST / 2023.02.04 0151 UTC
Wind: from the W (260 degrees) at 3 MPH (3 KT):0
Visibility: 10 mile(s):0
Sky conditions: mostly cloudy
Weather: light snow
Precipitation last hour: A trace
Temperature: 9.0 F (-12.8 C)
Dew Point: 1.0 F (-17.2 C)
Relative Humidity: 69%
Pressure (altimeter): 30.49 in. Hg (1032 hPa)
ob: KYNG 040151Z 26003KT 10SM -SN BKN044 M13/M17 A3049 RMK AO2 SLP352 P0000 T11281172
cycle: 2

Station Type Date Time Source
KYNG TAF 2023/02/04 01:30 UTC NOAA

TAF
AMD KYNG 040127Z 0401/0424 27005KT P6SM VCSH BKN035
FM040400 VRB04KT P6SM SCT035
FM041100 18009KT P6SM SCT250
FM041600 19012G20KT P6SM BKN250

Example: see airport list